aviador You're here:

LFBI Decoded Metar

POITIERS in FRANCE
Report Time2017-10-22 17:00:00
UTC Time2017-10-22 17:18:00
Flight Rules vfr VFR
Wind260° at 06 kt
W.Decomp.*RWY 21: 3.8 kt HW 4.7 kt RCW
W.Rank260° ranks 15
Current wind is below 260° avg. (7.5)
Visibility9999 m
Phenomena:N/A
Clouds:Few 004 Hf
Expected CloudBase > 2,400 ft AGL from Temp-Dew spread
CeilingNone
Temp12°C (ISA -2)
Dew Point06°C (67% RH)
AAT8.9°C
QNH1025 hPa
Density Alt-144 ft
Elevation394 ft
Report Wrong Elevation
Raw Report
LFBI 221700Z AUTO 26006KT 9999 FEW004 12/06 Q1025 NOSIG=

Extra information for LFBI:More info

Metar Taf Metar & Taf Last 4 Metars F.Rules Stats Wind Profile Meteogram Temp Stats Airport Information Weather charts Add Link Nearby VenuesMetar ALERT Operation Metar Decoded Social comments